Hadlyme, CT

6:22 PM EST on January 30, 2015 (GMT -0500)
APRSWXNET Lyme CT US | Change Station
CLOSE
Current Station
Personal Weather Station
Location: Hadlyme, CT
Elevation: 252 ft
Nearby Weather Stations
Active Advisory: Wind Advisory

Elev 252 ft 41.41 °N, 72.37 °W | Updated 57 minutes ago

Overcast
Overcast
30 °F
Feels Like 25 °F
N
5
Wind Variable Wind from SW
Gusts 16.0 mph

Today
High -- | Low -- °F
--% Chance of Precip.
Yesterday
High -- | Low -- °F
Precip. -- in
7:03 AM 5:02 PM
Waxing Gibbous, 85% visible
Pressure 29.81 in
Visibility 10.0 miles
Clouds Few 4200 ft
Windchill 25 °F
Dew Point 19 °F
Humidity 64%
Rainfall 0.01 in
Snow Depth Not available.
UV 0 out of 12
Pollen .10 out of 12
Air Quality Not available.
Flu Activity Not available.
METAR KSNC 302315Z AUTO 32012G25KT 10SM FEW042 M01/M08 A2981 RMK AO2

More Conditions Fewer Conditions

Pressure 29.81 in
Visibility 10.0 miles
Clouds Few 4200 ft
Windchill 25 °F
Dew Point 19 °F
Humidity 64%
Rainfall 0.01 in
Snow Depth Not available.
UV 0 out of 12
Pollen .10 out of 12
Air Quality Not available.
Flu Activity Not available.
METAR KSNC 302315Z AUTO 32012G25KT 10SM FEW042 M01/M08 A2981 RMK AO2

More Conditions Fewer Conditions

10-Day Weather Forecast

Almanac

Astronomy

Jan. 30, 2015 Rise Set
Actual Time
Civil Twilight
Nautical Twilight
Astronomical Twilight
Moon
Length of Visible Light
Length of Day
Tomorrow will be .
, % of the Moon is Illuminated

Today's Extremes

State Highs State Lows

Community

WunderPhotos

Upload Photos

1,791,923 photos uploaded!

WunderBlogs® & News

Nearby

Air Quality

  Air Quality AQ Index Pollutant
Not available.

Snow Depth

Station Depth Elevation

Earthquake Activity

City Distance Mag. Time & Date
Minimum magnitude displayed is 2.5.

Coastal Water Temperatures

Place Temperature

Nearby Weather Stations